Time;durP1;ratioP1;P1;durP2;ratioP2;P2;SDS_P1;SDS_P2;PMS_P1;PMS_P2;Temp;Humidity;BMP_temperature;BMP_pressure;BME280_temperature;BME280_humidity;BME280_pressure;Samples;Min_cycle;Max_cycle;Signal;HPM_P1;HPM_P2
2021/09/27 00:01:09;;;;;;;7.92;2.98;;;;;;;7.68;100.00;100675.50;1713059;82;21090;-79
2021/09/27 00:03:36;;;;;;;5.47;2.40;;;;;;;7.68;100.00;100678.13;1712473;83;21149;-78
2021/09/27 00:06:04;;;;;;;5.83;2.70;;;;;;;7.67;100.00;100672.48;1712633;83;21589;-79
2021/09/27 00:08:30;;;;;;;7.05;2.60;;;;;;;7.66;100.00;100669.45;1712537;83;21057;-81
2021/09/27 00:11:04;;;;;;;8.75;2.77;;;;;;;7.69;100.00;100673.77;1711818;82;21061;-76
2021/09/27 00:13:37;;;;;;;6.70;2.52;;;;;;;7.70;100.00;100665.86;1707340;83;21065;-77
2021/09/27 00:16:05;;;;;;;6.80;2.52;;;;;;;7.72;100.00;100673.27;1712732;82;21839;-77
2021/09/27 00:18:31;;;;;;;4.30;1.92;;;;;;;7.77;100.00;100674.04;1712567;82;21597;-76
2021/09/27 00:21:00;;;;;;;4.55;1.75;;;;;;;7.80;100.00;100682.75;1712576;83;21030;-76
2021/09/27 00:23:29;;;;;;;3.95;1.98;;;;;;;7.85;100.00;100675.70;1712947;83;21077;-77
2021/09/27 00:25:55;;;;;;;6.50;2.30;;;;;;;7.86;100.00;100680.89;1712547;83;21121;-76
2021/09/27 00:28:22;;;;;;;4.72;2.20;;;;;;;7.88;100.00;100684.81;1712898;82;21563;-77
2021/09/27 00:30:48;;;;;;;5.58;2.30;;;;;;;7.90;100.00;100689.59;1720741;82;21054;-76
2021/09/27 00:33:18;;;;;;;9.23;2.50;;;;;;;7.90;100.00;100685.66;1720101;83;21024;-77
2021/09/27 00:35:45;;;;;;;4.30;2.00;;;;;;;7.90;100.00;100698.31;1721997;83;21120;-76
2021/09/27 00:38:11;;;;;;;4.12;2.30;;;;;;;7.89;100.00;100692.67;1721382;83;21598;-78
2021/09/27 00:40:46;;;;;;;4.30;2.20;;;;;;;7.88;100.00;100699.23;1720467;83;21489;-79
2021/09/27 00:43:12;;;;;;;5.47;2.42;;;;;;;7.88;100.00;100693.99;1719845;83;21053;-80
2021/09/27 00:45:43;;;;;;;10.90;2.45;;;;;;;7.87;100.00;100698.83;1720193;83;21629;-79
2021/09/27 00:48:10;;;;;;;7.30;2.20;;;;;;;7.81;100.00;100695.84;1720447;83;26572;-79
2021/09/27 00:50:42;;;;;;;7.45;2.40;;;;;;;7.78;100.00;100698.53;1720343;83;21120;-79
2021/09/27 00:53:17;;;;;;;8.58;2.58;;;;;;;7.72;100.00;100702.10;1720662;83;21186;-80
2021/09/27 00:55:43;;;;;;;7.85;2.42;;;;;;;7.68;100.00;100712.20;1720005;83;21108;-82
2021/09/27 00:58:09;;;;;;;6.50;2.70;;;;;;;7.64;100.00;100711.86;1693276;83;21076;-79
2021/09/27 01:00:36;;;;;;;6.62;2.27;;;;;;;7.59;100.00;100718.05;1720322;83;21102;-79
2021/09/27 01:03:02;;;;;;;3.85;2.17;;;;;;;7.53;100.00;100712.47;1720181;83;22213;-81
2021/09/27 01:05:29;;;;;;;5.12;2.75;;;;;;;7.48;100.00;100716.92;1720272;83;21045;-79
2021/09/27 01:08:16;;;;;;;3.77;2.42;;;;;;;7.45;100.00;100715.19;1720146;83;21005;-81
2021/09/27 01:11:14;;;;;;;7.30;2.60;;;;;;;7.43;100.00;100712.17;1720600;83;21063;-79
2021/09/27 01:14:16;;;;;;;5.60;3.00;;;;;;;7.42;100.00;100722.24;1706674;83;21428;-79
2021/09/27 01:17:06;;;;;;;2.87;1.92;;;;;;;7.41;100.00;100723.11;1721283;81;21551;-74
2021/09/27 01:20:00;;;;;;;5.35;2.10;;;;;;;7.39;100.00;100715.75;1716855;83;21145;-76
2021/09/27 01:22:47;;;;;;;3.65;2.25;;;;;;;7.40;100.00;100718.77;1725594;83;21361;-76
2021/09/27 01:25:22;;;;;;;5.92;2.22;;;;;;;7.43;100.00;100722.65;1722291;82;21607;-75
2021/09/27 01:28:19;;;;;;;5.33;2.40;;;;;;;7.46;100.00;100722.63;1719523;83;21263;-76
2021/09/27 01:31:31;;;;;;;5.40;2.45;;;;;;;7.50;100.00;100727.80;1719983;82;21588;-77
2021/09/27 01:34:53;;;;;;;4.35;2.02;;;;;;;7.58;100.00;100726.81;1714142;82;21543;-76
2021/09/27 01:37:31;;;;;;;5.50;2.50;;;;;;;7.64;100.00;100730.21;1690076;84;21048;-78
2021/09/27 01:40:12;;;;;;;3.95;1.80;;;;;;;7.74;100.00;100733.09;1689289;84;21082;-77
2021/09/27 01:43:05;;;;;;;4.08;2.22;;;;;;;7.81;100.00;100734.32;1690038;83;21958;-75
2021/09/27 01:45:58;;;;;;;5.75;2.50;;;;;;;7.85;100.00;100739.95;1689983;84;21067;-75
2021/09/27 01:48:35;;;;;;;5.47;2.50;;;;;;;7.90;100.00;100742.04;1689787;84;22975;-77
2021/09/27 01:51:16;;;;;;;4.40;2.50;;;;;;;7.94;100.00;100749.83;1690032;84;21071;-75
2021/09/27 01:54:22;;;;;;;5.75;2.15;;;;;;;7.95;100.00;100742.83;1668034;84;26698;-77
2021/09/27 01:57:19;;;;;;;5.30;1.65;;;;;;;7.95;100.00;100746.30;1689541;83;21586;-78
2021/09/27 02:00:09;;;;;;;3.85;1.95;;;;;;;7.98;100.00;100745.38;1689780;84;21546;-77
2021/09/27 02:03:01;;;;;;;8.28;2.52;;;;;;;7.98;100.00;100746.70;1703395;83;21481;-73
2021/09/27 02:05:58;;;;;;;3.25;1.98;;;;;;;7.96;100.00;100755.06;1713719;83;21072;-74
2021/09/27 02:08:44;;;;;;;4.30;1.80;;;;;;;7.92;100.00;100757.31;1714354;83;21059;-74
2021/09/27 02:11:18;;;;;;;4.87;2.22;;;;;;;7.91;100.00;100756.87;1713974;83;21029;-73
2021/09/27 02:14:13;;;;;;;5.22;1.90;;;;;;;7.86;100.00;100755.63;1714450;83;21041;-73
2021/09/27 02:17:26;;;;;;;6.25;2.08;;;;;;;7.81;100.00;100756.61;1714288;83;21170;-75
2021/09/27 02:20:10;;;;;;;3.10;2.02;;;;;;;7.78;100.00;100754.45;1690053;83;21055;-75
2021/09/27 02:22:51;;;;;;;3.10;1.92;;;;;;;7.68;100.00;100755.47;1714252;83;21643;-74
2021/09/27 02:25:31;;;;;;;;;;;;;;;7.58;100.00;100760.89;1721505;83;20998;-76
2021/09/27 02:27:54;;;;;;;4.67;2.02;;;;;;;7.51;100.00;100758.80;1720047;82;20179;-78
2021/09/27 02:30:25;;;;;;;4.97;2.15;;;;;;;7.44;100.00;100755.84;1716922;82;21478;-77
2021/09/27 02:33:00;;;;;;;6.42;2.87;;;;;;;7.40;100.00;100757.62;1712749;83;21038;-77
2021/09/27 02:35:34;;;;;;;4.80;2.25;;;;;;;7.32;100.00;100756.44;1712380;82;21064;-77
2021/09/27 02:38:11;;;;;;;4.15;1.72;;;;;;;7.27;100.00;100767.42;1713264;83;21038;-77
2021/09/27 02:40:45;;;;;;;3.40;1.90;;;;;;;7.21;100.00;100771.42;1713493;82;21085;-77
2021/09/27 02:43:12;;;;;;;5.08;1.85;;;;;;;7.15;100.00;100776.73;1714914;82;21140;-75
2021/09/27 02:45:40;;;;;;;4.42;1.80;;;;;;;7.10;100.00;100774.62;1716130;83;21049;-78
2021/09/27 02:48:19;;;;;;;6.22;2.22;;;;;;;7.05;100.00;100773.38;1715718;82;21561;-76
2021/09/27 02:50:50;;;;;;;4.95;2.17;;;;;;;7.01;100.00;100772.97;1713346;83;21061;-76
2021/09/27 02:53:17;;;;;;;6.62;2.40;;;;;;;6.94;100.00;100769.56;1711686;83;21616;-77
2021/09/27 02:55:58;;;;;;;7.28;2.62;;;;;;;6.89;100.00;100773.99;1713789;83;21058;-79
2021/09/27 02:58:52;;;;;;;;;;;;;;;6.84;100.00;100775.80;1716506;82;21018;-78
2021/09/27 03:01:38;;;;;;;7.80;2.30;;;;;;;6.81;100.00;100778.47;1713607;83;20194;-78
2021/09/27 03:04:11;;;;;;;7.58;2.50;;;;;;;6.72;100.00;100774.64;1713192;83;21042;-78
2021/09/27 03:06:43;;;;;;;3.72;1.65;;;;;;;6.65;100.00;100773.84;1712833;82;21026;-78
2021/09/27 03:09:39;;;;;;;3.75;1.62;;;;;;;6.61;100.00;100777.81;1712821;83;21515;-78
2021/09/27 03:12:33;;;;;;;8.80;2.45;;;;;;;6.56;100.00;100780.92;1712312;82;21058;-76
2021/09/27 03:15:21;;;;;;;16.05;3.20;;;;;;;6.52;100.00;100786.61;1667518;82;21131;-75
2021/09/27 03:18:12;;;;;;;4.10;2.37;;;;;;;6.46;100.00;100784.91;1706121;83;21049;-76
2021/09/27 03:20:59;;;;;;;8.70;2.50;;;;;;;6.42;100.00;100783.23;1713133;82;21173;-75
2021/09/27 03:24:03;;;;;;;7.42;2.20;;;;;;;6.38;100.00;100778.90;1712771;83;21542;-77
2021/09/27 03:26:53;;;;;;;10.15;2.47;;;;;;;6.36;100.00;100781.11;1712743;82;21031;-78
2021/09/27 03:29:40;;;;;;;6.23;2.57;;;;;;;6.33;100.00;100785.93;1712792;82;21027;-78
2021/09/27 03:32:33;;;;;;;6.35;2.05;;;;;;;6.27;100.00;100784.22;1712772;82;21097;-80
2021/09/27 03:35:05;;;;;;;5.12;1.75;;;;;;;6.26;100.00;100786.88;1712764;82;21085;-77
2021/09/27 03:37:59;;;;;;;4.75;2.42;;;;;;;6.21;100.00;100780.78;1691777;82;21121;-78
2021/09/27 03:40:40;;;;;;;5.12;2.65;;;;;;;6.19;100.00;100787.77;1683995;85;21584;-77
2021/09/27 03:43:16;;;;;;;8.55;2.52;;;;;;;6.16;100.00;100778.66;1684032;85;21105;-77
2021/09/27 03:46:03;;;;;;;8.30;2.33;;;;;;;6.12;100.00;100780.45;1685592;84;21112;-85
2021/09/27 03:48:55;;;;;;;5.83;2.72;;;;;;;6.10;100.00;100788.75;1707527;83;21419;-80
2021/09/27 03:51:32;;;;;;;7.08;2.62;;;;;;;6.06;100.00;100790.50;1712670;82;21108;-79
2021/09/27 03:54:15;;;;;;;11.97;3.52;;;;;;;6.03;100.00;100793.16;1711907;82;21053;-77
2021/09/27 03:56:59;;;;;;;10.08;2.35;;;;;;;6.01;100.00;100796.66;1704541;83;21077;-79
2021/09/27 04:00:04;;;;;;;7.92;2.60;;;;;;;5.99;100.00;100794.05;1652325;85;21055;-78
2021/09/27 04:02:47;;;;;;;5.33;1.72;;;;;;;6.00;100.00;100806.23;1707073;84;21132;-81
2021/09/27 04:05:39;;;;;;;4.08;1.90;;;;;;;5.97;100.00;100802.78;1705998;83;25706;-79
2021/09/27 04:08:35;;;;;;;5.05;2.17;;;;;;;5.99;100.00;100796.66;1705295;83;21600;-79
2021/09/27 04:11:44;;;;;;;7.78;2.60;;;;;;;5.99;100.00;100801.03;1705828;84;21061;-80
2021/09/27 04:14:37;;;;;;;7.22;2.72;;;;;;;5.97;100.00;100795.80;1705622;84;21030;-81
2021/09/27 04:17:44;;;;;;;8.10;3.45;;;;;;;5.97;100.00;100801.03;1706113;83;21093;-83
2021/09/27 04:20:28;;;;;;;6.35;2.72;;;;;;;5.98;100.00;100800.17;1705882;83;21112;-81
2021/09/27 04:23:26;;;;;;;8.28;2.60;;;;;;;6.14;100.00;100802.64;1686091;83;21651;-80
2021/09/27 04:26:30;;;;;;;4.22;2.12;;;;;;;6.65;100.00;100801.77;1711504;82;21100;-77
2021/09/27 04:29:26;;;;;;;3.12;2.25;;;;;;;7.23;100.00;100801.09;1706400;83;21097;-81
2021/09/27 04:32:16;;;;;;;13.05;2.30;;;;;;;7.51;100.00;100795.49;1706449;83;21041;-80
2021/09/27 04:34:54;;;;;;;3.70;1.80;;;;;;;7.49;100.00;100804.67;1681112;82;21492;-78
2021/09/27 04:37:22;;;;;;;4.50;2.08;;;;;;;7.43;100.00;100802.58;1708701;83;21224;-81
2021/09/27 04:39:48;;;;;;;8.60;1.98;;;;;;;7.34;100.00;100797.90;1707137;83;21038;-77
2021/09/27 04:42:29;;;;;;;2.55;1.60;;;;;;;7.25;100.00;100800.64;1708383;82;21117;-80
2021/09/27 04:45:35;;;;;;;7.20;2.37;;;;;;;7.18;100.00;100800.30;1706649;82;21054;-80
2021/09/27 04:48:24;;;;;;;6.95;2.47;;;;;;;7.41;100.00;100805.23;1691722;83;21121;-82
2021/09/27 04:51:23;;;;;;;7.58;1.87;;;;;;;8.13;100.00;100805.48;1687326;83;21321;-81
2021/09/27 04:54:39;;;;;;;5.62;1.70;;;;;;;9.00;100.00;100801.77;1712577;83;21050;-81
2021/09/27 04:57:29;;;;;;;5.10;1.75;;;;;;;9.96;100.00;100797.05;1712851;83;21109;-81
2021/09/27 05:00:25;;;;;;;5.28;1.95;;;;;;;11.02;95.83;100795.22;1676406;85;21121;-82
2021/09/27 05:03:22;;;;;;;2.77;1.47;;;;;;;11.78;93.03;100793.85;1691024;83;21097;-82
2021/09/27 05:06:25;;;;;;;3.85;1.60;;;;;;;12.63;87.98;100794.59;1708691;83;21129;-81
2021/09/27 05:09:12;;;;;;;5.62;1.70;;;;;;;13.39;82.03;100791.42;1712448;83;21489;-80
2021/09/27 05:12:04;;;;;;;5.00;1.70;;;;;;;14.02;77.32;100792.44;1696235;83;21114;-82
2021/09/27 05:14:59;;;;;;;4.53;2.00;;;;;;;14.49;71.95;100780.77;1667634;85;21088;-81
2021/09/27 05:17:52;;;;;;;6.37;1.80;;;;;;;14.64;70.76;100781.95;1708021;83;21549;-81
2021/09/27 05:20:30;;;;;;;3.92;1.70;;;;;;;15.04;69.53;100778.84;1710023;82;21071;-79
2021/09/27 05:23:17;;;;;;;3.45;1.47;;;;;;;15.49;65.31;100774.53;1710598;83;21094;-77
2021/09/27 05:26:08;;;;;;;4.28;1.67;;;;;;;15.92;66.33;100779.63;1711766;83;21348;-75
2021/09/27 05:28:58;;;;;;;4.28;1.40;;;;;;;16.55;64.75;100775.98;1712361;82;21624;-77
2021/09/27 05:31:42;;;;;;;4.58;1.45;;;;;;;17.06;62.63;100776.48;1711274;82;22025;-76
2021/09/27 05:34:25;;;;;;;5.17;1.40;;;;;;;17.42;60.15;100779.43;1708320;82;21085;-76
2021/09/27 05:37:23;;;;;;;1.98;1.40;;;;;;;17.72;55.78;100788.36;1694467;83;21635;-76
2021/09/27 05:40:18;;;;;;;4.80;1.42;;;;;;;17.89;56.83;100783.91;1701358;83;21078;-76
2021/09/27 05:43:19;;;;;;;1.95;1.10;;;;;;;18.02;55.41;100784.45;1708253;83;21056;-77
2021/09/27 05:45:59;;;;;;;5.00;1.30;;;;;;;18.33;56.00;100777.80;1705743;83;21014;-77
2021/09/27 05:48:37;;;;;;;1.87;1.05;;;;;;;18.56;52.46;100783.95;1706226;84;21523;-75
2021/09/27 05:51:15;;;;;;;9.78;1.50;;;;;;;18.71;52.97;100788.00;1708154;83;21046;-76
2021/09/27 05:54:09;;;;;;;4.08;1.40;;;;;;;19.12;50.86;100785.94;1706933;83;21312;-76
2021/09/27 05:56:53;;;;;;;10.13;1.50;;;;;;;19.28;50.26;100783.56;1675095;85;21085;-75
2021/09/27 05:59:34;;;;;;;3.45;1.32;;;;;;;19.60;48.00;100784.67;1712367;83;21783;-75
2021/09/27 06:02:44;;;;;;;2.45;1.10;;;;;;;19.59;47.82;100788.28;1693223;83;21097;-76
2021/09/27 06:05:27;;;;;;;4.40;1.27;;;;;;;19.73;47.82;100790.09;1711671;83;21046;-79
2021/09/27 06:08:26;;;;;;;1.82;0.93;;;;;;;20.09;45.51;100796.67;1709196;82;21053;-74
2021/09/27 06:11:11;;;;;;;3.33;0.95;;;;;;;20.36;44.96;100793.98;1706861;83;21034;-74
2021/09/27 06:13:39;;;;;;;3.90;1.42;;;;;;;20.14;45.64;100792.36;1707309;83;21134;-75
2021/09/27 06:16:32;;;;;;;4.60;0.93;;;;;;;20.33;45.91;100786.14;1708168;83;21535;-76
2021/09/27 06:19:15;;;;;;;3.92;1.00;;;;;;;20.85;43.09;100779.08;1709540;83;21009;-76
2021/09/27 06:22:04;;;;;;;5.30;1.10;;;;;;;21.11;42.41;100782.09;1705660;83;21089;-75
2021/09/27 06:24:57;;;;;;;5.90;1.22;;;;;;;21.14;42.81;100781.90;1708078;83;21154;-75
2021/09/27 06:27:50;;;;;;;4.28;0.93;;;;;;;21.48;42.41;100783.52;1684846;83;21227;-76
2021/09/27 06:30:52;;;;;;;2.00;0.90;;;;;;;21.82;42.71;100786.91;1709302;83;21455;-74
2021/09/27 06:33:43;;;;;;;8.85;1.42;;;;;;;21.98;40.90;100789.67;1709886;83;21860;-74
2021/09/27 06:36:14;;;;;;;1.92;1.00;;;;;;;22.31;40.04;100789.97;1706196;82;21093;-75
2021/09/27 06:38:41;;;;;;;2.65;0.70;;;;;;;22.67;39.05;100778.73;1692842;83;21079;-75
2021/09/27 06:41:10;;;;;;;4.90;1.12;;;;;;;22.85;38.19;100783.16;1709714;83;21512;-75
2021/09/27 06:43:37;;;;;;;2.72;0.98;;;;;;;22.56;36.45;100783.58;1710268;82;21097;-75
2021/09/27 06:46:05;;;;;;;1.82;1.00;;;;;;;22.07;36.72;100795.33;1707425;83;21639;-75
2021/09/27 06:48:31;;;;;;;5.05;2.10;;;;;;;21.73;38.62;100789.77;1672684;85;21113;-75
2021/09/27 06:50:57;;;;;;;4.30;1.50;;;;;;;21.75;37.89;100790.52;1658952;86;21106;-75
2021/09/27 06:53:25;;;;;;;2.87;1.00;;;;;;;21.45;38.55;100780.22;1663435;86;21058;-75
2021/09/27 06:55:52;;;;;;;2.98;0.90;;;;;;;21.40;39.11;100790.38;1657588;85;21047;-77
2021/09/27 06:58:21;;;;;;;6.67;1.30;;;;;;;21.15;39.23;100789.45;1656657;86;21546;-75
2021/09/27 07:00:47;;;;;;;4.20;0.60;;;;;;;20.80;40.24;100787.88;1643432;86;21081;-76
2021/09/27 07:03:13;;;;;;;1.98;0.75;;;;;;;20.97;40.17;100792.93;1659418;84;21601;-75
2021/09/27 07:05:39;;;;;;;3.72;0.80;;;;;;;21.08;39.55;100796.20;1651925;85;21494;-75
2021/09/27 07:08:06;;;;;;;4.53;1.17;;;;;;;20.96;39.17;100796.59;1657701;86;21086;-76
2021/09/27 07:10:32;;;;;;;3.02;0.60;;;;;;;20.76;38.95;100798.45;1659992;85;21079;-75
2021/09/27 07:13:00;;;;;;;2.55;0.80;;;;;;;20.12;40.30;100799.13;1710063;82;21070;-76
2021/09/27 07:15:27;;;;;;;8.50;1.60;;;;;;;19.95;40.81;100792.72;1710018;83;21541;-74
2021/09/27 07:17:53;;;;;;;8.53;1.72;;;;;;;19.93;41.06;100793.30;1706315;83;21492;-76
2021/09/27 07:20:23;;;;;;;4.05;0.70;;;;;;;20.16;40.82;100792.63;1708301;83;21077;-73
2021/09/27 07:22:49;;;;;;;3.30;0.60;;;;;;;20.03;39.40;100791.72;1698030;82;21042;-75
2021/09/27 07:25:16;;;;;;;3.72;0.70;;;;;;;19.56;40.62;100791.64;1698724;83;21105;-76
2021/09/27 07:27:43;;;;;;;1.95;1.00;;;;;;;19.10;41.40;100795.88;1702768;82;21052;-76
2021/09/27 07:30:11;;;;;;;2.05;0.50;;;;;;;18.99;41.26;100791.20;1684518;83;22052;-76
2021/09/27 07:32:38;;;;;;;1.50;0.70;;;;;;;18.91;41.53;100795.69;1715832;82;21068;-77
2021/09/27 07:35:07;;;;;;;3.90;0.62;;;;;;;18.99;41.60;100794.72;1695574;83;21216;-77
2021/09/27 07:37:34;;;;;;;0.60;0.60;;;;;;;19.07;41.33;100796.45;1701941;83;21061;-76
2021/09/27 07:40:00;;;;;;;1.42;0.50;;;;;;;19.31;40.65;100793.19;1724027;82;21071;-77
2021/09/27 07:42:27;;;;;;;1.32;0.60;;;;;;;19.58;39.71;100789.25;1715606;83;22278;-75
2021/09/27 07:44:53;;;;;;;0.72;0.60;;;;;;;19.80;40.11;100793.23;1725495;82;21552;-76
2021/09/27 07:47:20;;;;;;;5.40;0.75;;;;;;;19.82;40.04;100789.98;1717807;82;21532;-76
2021/09/27 07:49:46;;;;;;;6.40;0.93;;;;;;;20.16;40.35;100788.62;1722391;81;21046;-76
2021/09/27 07:52:12;;;;;;;5.33;1.30;;;;;;;20.81;39.42;100790.95;1710135;83;21033;-76
2021/09/27 07:54:39;;;;;;;7.65;0.80;;;;;;;21.64;38.59;100787.77;1722176;82;21143;-76
2021/09/27 07:57:08;;;;;;;4.15;0.90;;;;;;;22.41;37.05;100782.94;1722355;82;21053;-76
2021/09/27 07:59:34;;;;;;;1.20;0.60;;;;;;;22.71;36.64;100787.77;1718341;83;21096;-75
2021/09/27 08:02:02;;;;;;;2.37;0.72;;;;;;;22.55;36.03;100789.44;1717814;83;21574;-77
2021/09/27 08:04:28;;;;;;;5.67;1.00;;;;;;;22.05;36.11;100795.92;1714449;82;21103;-77
2021/09/27 08:06:54;;;;;;;5.40;1.42;;;;;;;21.35;37.47;100794.73;1714647;83;21108;-78
2021/09/27 08:09:21;;;;;;;3.87;0.98;;;;;;;20.71;38.90;100796.94;1698470;83;21087;-76
2021/09/27 08:11:47;;;;;;;1.85;0.85;;;;;;;20.11;39.01;100796.09;1721594;83;21069;-76
2021/09/27 08:14:14;;;;;;;9.30;0.90;;;;;;;19.47;40.21;100792.59;1723723;82;21571;-76
2021/09/27 08:16:41;;;;;;;1.40;0.68;;;;;;;18.85;41.97;100791.56;1722820;82;21096;-77
2021/09/27 08:19:08;;;;;;;9.63;1.10;;;;;;;18.93;41.96;100789.75;1723840;82;21077;-78
2021/09/27 08:21:34;;;;;;;2.20;0.45;;;;;;;19.01;41.31;100792.81;1723008;81;21069;-74
2021/09/27 08:24:00;;;;;;;2.85;0.50;;;;;;;18.88;40.74;100791.84;1724556;83;21029;-74
2021/09/27 08:26:27;;;;;;;1.95;0.57;;;;;;;18.66;41.25;100793.61;1723121;82;21030;-74
2021/09/27 08:28:55;;;;;;;2.85;0.60;;;;;;;18.52;41.63;100793.11;1689768;84;21103;-74
2021/09/27 08:31:22;;;;;;;7.67;0.80;;;;;;;18.43;42.05;100795.84;1672538;84;21731;-75
2021/09/27 08:33:52;;;;;;;1.47;0.53;;;;;;;18.34;42.24;100791.53;1683712;85;21132;-74
2021/09/27 08:36:21;;;;;;;41.20;2.08;;;;;;;18.22;41.80;100782.41;1685655;85;21158;-75
2021/09/27 08:38:47;;;;;;;3.72;0.70;;;;;;;18.26;41.95;100783.96;1720382;82;21050;-74
2021/09/27 08:41:29;;;;;;;1.05;0.50;;;;;;;18.79;40.85;100799.08;1719508;82;21097;-74
2021/09/27 08:46:37;;;;;;;5.05;0.50;;;;;;;19.01;38.64;100792.81;1795921;79;23278;-73
2021/09/27 08:49:35;;;;;;;3.50;0.80;;;;;;;18.98;38.92;100792.13;1750751;80;21627;-73
2021/09/27 08:52:02;;;;;;;1.30;0.53;;;;;;;19.48;38.83;100786.28;1722312;82;21139;-75
2021/09/27 08:54:30;;;;;;;2.98;0.40;;;;;;;20.09;36.84;100794.00;1721575;82;21107;-73
2021/09/27 08:57:48;;;;;;;2.72;0.62;;;;;;;20.31;37.79;100779.58;1726695;82;21025;-73
2021/09/27 09:00:37;;;;;;;1.70;0.30;;;;;;;20.10;36.73;100790.35;1721088;82;21699;-74
2021/09/27 09:03:17;;;;;;;2.30;0.30;;;;;;;19.55;35.42;100784.57;1736696;82;21061;-74
2021/09/27 09:06:09;;;;;;;1.50;0.30;;;;;;;19.08;35.75;100780.80;1717945;82;21016;-74
2021/09/27 09:08:45;;;;;;;18.92;1.42;;;;;;;18.65;36.71;100783.39;1726942;82;20985;-74
2021/09/27 09:11:30;;;;;;;12.80;1.00;;;;;;;18.08;37.96;100780.55;1725961;82;21033;-74
2021/09/27 09:14:17;;;;;;;3.60;0.60;;;;;;;18.19;38.09;100790.13;1718310;82;21631;-74
2021/09/27 09:16:47;;;;;;;1.35;0.57;;;;;;;18.80;37.90;100779.47;1729948;82;22231;-74
2021/09/27 09:19:19;;;;;;;10.45;0.70;;;;;;;19.19;36.99;100776.14;1695457;82;21122;-74
2021/09/27 09:22:00;;;;;;;1.85;0.40;;;;;;;19.29;38.42;100779.08;1710690;82;21082;-73
2021/09/27 09:24:32;;;;;;;2.40;0.60;;;;;;;19.47;39.67;100789.08;1720983;82;21030;-73
2021/09/27 09:27:03;;;;;;;5.72;0.93;;;;;;;19.42;40.33;100781.36;1731979;82;21096;-73
2021/09/27 09:29:32;;;;;;;1.45;0.30;;;;;;;19.13;41.51;100782.33;1716704;82;21076;-74
2021/09/27 09:32:21;;;;;;;4.58;0.62;;;;;;;18.92;40.43;100785.38;1733843;82;21138;-75
2021/09/27 09:34:52;;;;;;;1.02;0.40;;;;;;;18.58;40.30;100793.20;1721864;82;21042;-74
2021/09/27 09:37:37;;;;;;;0.60;0.50;;;;;;;18.17;40.39;100794.68;1736428;82;21088;-74
2021/09/27 09:40:18;;;;;;;8.73;0.90;;;;;;;17.88;41.74;100796.86;1741002;82;21060;-74
2021/09/27 09:43:09;;;;;;;;;;;;;;;17.62;41.74;100793.80;1700949;82;21074;-74
2021/09/27 09:45:40;;;;;;;0.88;0.50;;;;;;;17.34;42.66;100804.64;1727249;82;21051;-74
2021/09/27 09:48:21;;;;;;;1.67;0.75;;;;;;;17.03;43.45;100804.12;1726134;82;21572;-74
2021/09/27 09:50:53;;;;;;;3.72;1.25;;;;;;;17.06;46.10;100797.77;1724377;82;21025;-75
2021/09/27 09:53:30;;;;;;;4.42;0.80;;;;;;;17.31;44.56;100792.84;1721565;82;21060;-74
2021/09/27 09:56:07;;;;;;;3.12;0.60;;;;;;;17.50;44.00;100787.83;1729122;82;21030;-75
2021/09/27 09:58:44;;;;;;;3.10;0.70;;;;;;;17.59;43.27;100789.98;1733456;82;21527;-74
2021/09/27 10:01:23;;;;;;;3.65;0.72;;;;;;;17.39;43.89;100794.62;1735446;81;21112;-73
2021/09/27 10:04:06;;;;;;;1.55;0.82;;;;;;;17.24;45.08;100796.78;1733472;82;21089;-75
2021/09/27 10:06:41;;;;;;;7.58;1.00;;;;;;;17.05;46.73;100793.41;1744364;82;21092;-74
2021/09/27 10:09:16;;;;;;;5.80;1.05;;;;;;;16.77;47.28;100796.13;1723223;82;21662;-74
2021/09/27 10:11:53;;;;;;;3.02;0.80;;;;;;;16.63;49.32;100799.98;1718701;82;21081;-74
2021/09/27 10:14:35;;;;;;;5.20;1.50;;;;;;;16.50;48.09;100793.98;1730344;82;21077;-74
2021/09/27 10:17:29;;;;;;;10.03;1.40;;;;;;;16.38;48.74;100799.92;1718157;83;21049;-74
2021/09/27 10:20:18;;;;;;;0.60;0.60;;;;;;;16.37;49.14;100802.17;1731045;82;21588;-73
2021/09/27 10:22:58;;;;;;;3.90;0.70;;;;;;;16.34;48.83;100799.68;1724395;81;21566;-75
2021/09/27 10:25:32;;;;;;;4.15;1.02;;;;;;;16.24;49.44;100813.02;1746186;82;21816;-75
2021/09/27 10:28:02;;;;;;;3.20;1.00;;;;;;;16.09;50.86;100792.06;1743229;82;21552;-74
2021/09/27 10:30:46;;;;;;;1.37;0.90;;;;;;;15.95;51.57;100808.69;1733152;82;21085;-74
2021/09/27 10:33:20;;;;;;;9.20;1.20;;;;;;;15.71;51.23;100808.94;1718379;83;21513;-76
2021/09/27 10:35:57;;;;;;;3.67;1.07;;;;;;;15.48;52.09;100811.76;1733387;82;21030;-75
2021/09/27 10:38:40;;;;;;;2.35;0.85;;;;;;;15.30;52.86;100812.16;1724243;82;21883;-76
2021/09/27 10:41:29;;;;;;;4.62;1.15;;;;;;;15.20;53.34;100809.05;1717961;82;21891;-76
2021/09/27 10:43:59;;;;;;;6.03;0.90;;;;;;;15.07;54.06;100813.21;1732675;82;21089;-75
2021/09/27 10:46:32;;;;;;;7.03;1.17;;;;;;;14.93;54.85;100808.95;1723471;82;20998;-75
2021/09/27 10:48:58;;;;;;;2.77;1.00;;;;;;;14.81;55.00;100814.34;1726893;82;21088;-74
2021/09/27 10:51:30;;;;;;;11.38;1.45;;;;;;;14.71;55.78;100813.03;1732054;82;20991;-75
2021/09/27 10:54:06;;;;;;;2.10;1.00;;;;;;;14.65;58.46;100812.81;1687053;83;21028;-74
2021/09/27 10:56:52;;;;;;;2.37;1.15;;;;;;;14.59;56.56;100813.10;1713022;82;21117;-74
2021/09/27 10:59:35;;;;;;;5.55;1.30;;;;;;;14.54;57.81;100815.03;1725247;82;21673;-76
2021/09/27 11:02:17;;;;;;;2.92;1.10;;;;;;;14.59;57.84;100815.75;1728726;82;21043;-77
2021/09/27 11:04:46;;;;;;;4.12;1.10;;;;;;;14.66;58.07;100819.86;1705261;82;21137;-75
2021/09/27 11:07:35;;;;;;;1.55;1.10;;;;;;;14.72;58.64;100814.27;1730032;80;21095;-74
2021/09/27 11:10:03;;;;;;;3.45;1.20;;;;;;;14.75;57.03;100808.00;1735239;82;21058;-75
2021/09/27 11:12:43;;;;;;;2.62;1.32;;;;;;;14.69;56.56;100810.44;1684206;82;21045;-74
2021/09/27 11:15:23;;;;;;;4.67;1.87;;;;;;;14.65;56.48;100815.47;1709836;82;21042;-76
2021/09/27 11:18:17;;;;;;;15.70;2.30;;;;;;;14.60;57.08;100804.20;1732984;82;21074;-75
2021/09/27 11:21:02;;;;;;;3.25;1.32;;;;;;;14.54;57.43;100804.42;1721657;82;21085;-76
2021/09/27 11:23:37;;;;;;;2.65;1.25;;;;;;;14.42;59.25;100806.70;1720836;82;21594;-77
2021/09/27 11:26:20;;;;;;;4.40;1.47;;;;;;;14.40;60.68;100807.22;1727977;82;21079;-75
2021/09/27 11:29:16;;;;;;;3.60;1.35;;;;;;;14.40;61.66;100801.03;1735060;82;21130;-75
2021/09/27 11:31:42;;;;;;;6.37;1.25;;;;;;;14.44;60.80;100810.12;1727049;82;21518;-75
2021/09/27 11:34:32;;;;;;;8.10;2.02;;;;;;;14.47;61.07;100810.01;1729870;82;21037;-74
2021/09/27 11:37:20;;;;;;;2.83;1.98;;;;;;;14.52;62.06;100808.95;1714439;82;21006;-75
2021/09/27 11:39:52;;;;;;;4.03;1.57;;;;;;;14.56;61.17;100802.17;1723415;82;21058;-75
2021/09/27 11:42:27;;;;;;;3.92;1.80;;;;;;;14.65;62.09;100807.52;1723173;81;21093;-74
2021/09/27 11:45:10;;;;;;;2.98;1.20;;;;;;;14.71;62.45;100809.91;1737809;82;21504;-75
2021/09/27 11:47:48;;;;;;;3.95;1.95;;;;;;;14.79;62.56;100810.89;1741299;82;21621;-76
2021/09/27 11:50:44;;;;;;;3.70;1.82;;;;;;;14.86;61.84;100813.23;1716425;82;21105;-75
2021/09/27 11:53:39;;;;;;;11.63;2.27;;;;;;;14.95;59.27;100809.75;1713566;82;21089;-75
2021/09/27 11:56:23;;;;;;;6.00;2.40;;;;;;;14.95;57.14;100811.08;1730173;82;21109;-75
2021/09/27 11:59:27;;;;;;;9.13;2.85;;;;;;;14.97;59.04;100807.90;1735309;80;21054;-81
2021/09/27 12:02:10;;;;;;;2.80;1.70;;;;;;;15.06;58.10;100807.48;1727170;80;21074;-80
2021/09/27 12:04:59;;;;;;;9.53;1.90;;;;;;;15.21;58.56;100810.78;1731900;82;21059;-80
2021/09/27 12:07:36;;;;;;;3.27;1.60;;;;;;;15.51;57.88;100807.66;1725412;82;21634;-79
2021/09/27 12:10:09;;;;;;;4.37;2.15;;;;;;;15.85;57.02;100804.73;1725565;82;21033;-83
2021/09/27 12:12:45;;;;;;;3.00;1.77;;;;;;;16.21;56.50;100807.87;1722562;82;21069;-83
2021/09/27 12:15:14;;;;;;;49.00;5.72;;;;;;;16.52;56.59;100802.73;1700221;82;21038;-82
2021/09/27 12:17:42;;;;;;;7.95;2.10;;;;;;;16.77;56.70;100805.44;1731122;82;22472;-82
2021/09/27 12:20:16;;;;;;;5.50;2.00;;;;;;;16.89;54.98;100804.00;1729914;82;21033;-87
2021/09/27 12:22:57;;;;;;;3.47;1.85;;;;;;;16.84;54.95;100801.58;1737056;82;20991;-83
2021/09/27 12:25:28;;;;;;;;;;;;;;;16.79;54.58;100806.25;1679318;85;21143;-85
2021/09/27 12:28:01;;;;;;;1.87;1.50;;;;;;;16.62;54.65;100804.92;1663120;84;20226;-84